Humboldt, Minnesota
Current Conditions -  °F | °C
As of 8:15 PM on Friday 19 Dec 2014 (Local Time) from KHCO Reporting Station
Haze Haze  
Wind Chill: 22°   Ceiling: 6000
Heat Index: 28°   Visibility: 1.7mi
Dew Point: 27°   Wind: 6mph
Humidity: 93%   Direction: 120°ESE
Pressure: 30.01"   Gusts: NA
Location:  48.92°N, 97.09°W
Report Text: KHCO 200215Z AUTO 12005KT 1 3/4SM BR OVC060 M02/M03 A3001 RMK AO2
Loading
Personal Weather Stations






























Interactive Weather Map New forecast layout! Learn more

10-Day Weather Forecast

Advertisements
Track Severe Weather on mobile